createdAt,value
2018-12-22T00:00:45.892Z,993.55
2018-12-22T00:01:45.884Z,993.72
2018-12-22T00:02:45.872Z,993.66
2018-12-22T00:03:45.865Z,993.54
2018-12-22T00:04:45.885Z,993.65
2018-12-22T00:05:45.838Z,993.62
2018-12-22T00:06:45.831Z,993.71
2018-12-22T00:07:45.818Z,993.67
2018-12-22T00:08:45.808Z,993.67
2018-12-22T00:09:45.796Z,993.58
2018-12-22T00:10:45.823Z,993.58
2018-12-22T00:11:45.776Z,993.58
2018-12-22T00:12:45.768Z,993.57
2018-12-22T00:13:45.752Z,993.54
2018-12-22T00:14:45.742Z,993.56
2018-12-22T00:15:45.732Z,993.53
2018-12-22T00:16:45.866Z,993.50
2018-12-22T00:17:45.709Z,993.49
2018-12-22T00:18:45.699Z,993.50
2018-12-22T00:19:45.689Z,993.51
2018-12-22T00:20:45.677Z,993.72
2018-12-22T00:21:45.667Z,993.60
2018-12-22T00:22:45.695Z,993.67
2018-12-22T00:23:45.646Z,993.63
2018-12-22T00:24:45.635Z,993.59
2018-12-22T00:25:45.628Z,993.64
2018-12-22T00:26:45.611Z,993.69
2018-12-22T00:27:45.602Z,993.70
2018-12-22T00:28:45.628Z,993.63
2018-12-22T00:29:45.579Z,993.65
2018-12-22T00:30:45.571Z,993.71
2018-12-22T00:31:45.560Z,993.68
2018-12-22T00:32:45.548Z,993.69
2018-12-22T00:33:45.539Z,993.86
2018-12-22T00:34:45.565Z,993.75
2018-12-22T00:35:45.523Z,993.82
2018-12-22T00:36:45.508Z,993.81
2018-12-22T00:37:45.496Z,993.75
2018-12-22T00:38:45.481Z,993.76
2018-12-22T00:39:45.473Z,993.86
2018-12-22T00:40:45.500Z,993.89
2018-12-22T00:41:45.451Z,993.95
2018-12-22T00:42:45.440Z,993.84
2018-12-22T00:43:45.428Z,993.87
2018-12-22T00:44:45.419Z,993.84
2018-12-22T00:45:45.418Z,993.89
2018-12-22T00:46:45.433Z,993.87
2018-12-22T00:47:45.386Z,993.86
2018-12-22T00:48:45.378Z,993.83
2018-12-22T00:49:45.377Z,993.89
2018-12-22T00:50:45.365Z,993.89
2018-12-22T00:51:45.343Z,993.88
2018-12-22T00:52:45.372Z,993.92
2018-12-22T00:53:45.320Z,993.98
2018-12-22T00:54:45.312Z,994.04
2018-12-22T00:55:45.301Z,994.06
2018-12-22T00:56:45.289Z,994.15
2018-12-22T00:57:45.280Z,994.04
2018-12-22T00:58:45.310Z,994.07
2018-12-22T00:59:45.259Z,994.03
2018-12-22T01:00:45.247Z,994.20
2018-12-22T01:01:45.235Z,994.18
2018-12-22T01:02:45.227Z,994.17
2018-12-22T01:03:45.216Z,994.24
2018-12-22T01:04:45.239Z,994.34
2018-12-22T01:05:45.195Z,994.39
2018-12-22T01:06:45.184Z,994.41
2018-12-22T01:07:45.172Z,994.38
2018-12-22T01:08:45.162Z,994.50
2018-12-22T01:09:45.151Z,994.52
2018-12-22T01:10:45.177Z,994.41
2018-12-22T01:11:45.129Z,994.46
2018-12-22T01:12:45.118Z,994.58
2018-12-22T01:13:45.108Z,994.50
2018-12-22T01:14:45.100Z,994.54
2018-12-22T01:15:45.086Z,994.52
2018-12-22T01:16:45.113Z,994.61
2018-12-22T01:17:45.069Z,994.58
2018-12-22T01:18:45.054Z,994.61
2018-12-22T01:19:45.045Z,994.59
2018-12-22T01:20:45.035Z,994.71
2018-12-22T01:21:45.022Z,994.64
2018-12-22T01:22:45.048Z,994.72
2018-12-22T01:23:45.001Z,994.74
2018-12-22T01:24:44.990Z,994.77
2018-12-22T01:25:44.985Z,994.76
2018-12-22T01:26:44.968Z,994.76
2018-12-22T01:27:44.958Z,994.82
2018-12-22T01:28:44.983Z,994.81
2018-12-22T01:29:44.935Z,994.82
2018-12-22T01:30:44.924Z,994.79
2018-12-22T01:31:44.913Z,994.81
2018-12-22T01:32:44.904Z,994.87
2018-12-22T01:33:44.892Z,994.83
2018-12-22T01:34:44.922Z,994.73
2018-12-22T01:35:44.875Z,994.87
2018-12-22T01:36:44.865Z,994.84
2018-12-22T01:37:44.851Z,994.83
2018-12-22T01:38:44.840Z,994.82
2018-12-22T01:39:44.831Z,994.92
2018-12-22T01:40:44.855Z,994.83
2018-12-22T01:41:44.808Z,994.82
2018-12-22T01:42:44.796Z,994.78
2018-12-22T01:43:44.785Z,994.80
2018-12-22T01:44:44.773Z,994.91
2018-12-22T01:45:44.764Z,994.72
2018-12-22T01:46:44.790Z,994.75
2018-12-22T01:47:44.746Z,994.78
2018-12-22T01:48:44.732Z,994.73
2018-12-22T01:49:44.721Z,994.89
2018-12-22T01:50:44.710Z,994.81
2018-12-22T01:51:44.699Z,994.79
2018-12-22T01:52:44.725Z,994.88
2018-12-22T01:53:44.678Z,994.94
2018-12-22T01:54:44.667Z,994.83
2018-12-22T01:55:44.657Z,994.89
2018-12-22T01:56:44.649Z,994.98
2018-12-22T01:57:44.635Z,994.89
2018-12-22T01:58:47.895Z,995.00
2018-12-22T01:59:44.615Z,994.95
2018-12-22T02:00:44.603Z,995.01
2018-12-22T02:01:44.593Z,995.04
2018-12-22T02:02:44.579Z,995.08
2018-12-22T02:03:44.571Z,995.13
2018-12-22T02:04:44.598Z,995.13
2018-12-22T02:05:44.550Z,994.98
2018-12-22T02:06:44.539Z,995.21
2018-12-22T02:07:44.534Z,995.01
2018-12-22T02:08:44.517Z,995.05
2018-12-22T02:09:44.517Z,995.09
2018-12-22T02:10:44.530Z,995.08
2018-12-22T02:11:44.485Z,995.13
2018-12-22T02:12:44.519Z,995.14
2018-12-22T02:13:44.462Z,995.19
2018-12-22T02:14:44.452Z,995.15
2018-12-22T02:15:44.444Z,995.22
2018-12-22T02:16:44.469Z,995.15
2018-12-22T02:17:44.425Z,995.20
2018-12-22T02:18:44.413Z,995.20
2018-12-22T02:19:44.399Z,995.19
2018-12-22T02:20:44.390Z,995.37
2018-12-22T02:21:44.378Z,995.13
2018-12-22T02:22:44.406Z,995.25
2018-12-22T02:23:44.356Z,995.28
2018-12-22T02:24:44.347Z,995.25
2018-12-22T02:25:44.333Z,995.25
2018-12-22T02:26:44.325Z,995.27
2018-12-22T02:27:44.317Z,995.47
2018-12-22T02:28:44.340Z,995.42
2018-12-22T02:29:44.291Z,995.34
2018-12-22T02:30:44.282Z,995.37
2018-12-22T02:31:44.286Z,995.39
2018-12-22T02:32:44.262Z,995.42
2018-12-22T02:33:44.248Z,995.30
2018-12-22T02:34:44.277Z,995.53
2018-12-22T02:35:44.231Z,995.27
2018-12-22T02:36:44.218Z,995.27
2018-12-22T02:37:44.206Z,995.47
2018-12-22T02:38:44.197Z,995.29
2018-12-22T02:39:44.187Z,995.36
2018-12-22T02:40:44.209Z,995.43
2018-12-22T02:41:44.164Z,995.45
2018-12-22T02:42:44.157Z,995.62
2018-12-22T02:43:44.140Z,995.50
2018-12-22T02:44:44.132Z,995.44
2018-12-22T02:45:44.121Z,995.57
2018-12-22T02:46:44.156Z,995.40
2018-12-22T02:47:44.096Z,995.45
2018-12-22T02:48:44.087Z,995.44
2018-12-22T02:49:44.075Z,995.56
2018-12-22T02:50:44.066Z,995.42
2018-12-22T02:51:44.055Z,995.47
2018-12-22T02:52:44.085Z,995.42
2018-12-22T02:53:44.033Z,995.48
2018-12-22T02:54:44.020Z,995.48
2018-12-22T02:55:44.010Z,995.52
2018-12-22T02:56:44.000Z,995.55
2018-12-22T02:57:43.989Z,995.44
2018-12-22T02:58:44.013Z,995.50
2018-12-22T02:59:43.971Z,995.52
2018-12-22T03:00:43.956Z,995.51
2018-12-22T03:01:43.945Z,995.46
2018-12-22T03:02:43.937Z,995.51
2018-12-22T03:03:43.924Z,995.49
2018-12-22T03:04:43.954Z,995.50
2018-12-22T03:05:43.902Z,995.60
2018-12-22T03:06:43.891Z,995.45
2018-12-22T03:07:43.889Z,995.55
2018-12-22T03:08:43.871Z,995.55
2018-12-22T03:09:43.861Z,995.56
2018-12-22T03:10:43.887Z,995.44
2018-12-22T03:11:43.838Z,995.53
2018-12-22T03:12:43.826Z,995.56
2018-12-22T03:13:43.816Z,995.42
2018-12-22T03:14:43.813Z,995.58
2018-12-22T03:15:43.799Z,995.65
2018-12-22T03:16:43.819Z,995.64
2018-12-22T03:17:43.772Z,995.58
2018-12-22T03:18:43.759Z,995.56
2018-12-22T03:19:43.754Z,995.59
2018-12-22T03:20:43.739Z,995.62
2018-12-22T03:21:43.734Z,995.54
2018-12-22T03:22:43.753Z,995.54
2018-12-22T03:23:43.709Z,995.57
2018-12-22T03:24:43.696Z,995.54
2018-12-22T03:25:43.686Z,995.68
2018-12-22T03:26:43.674Z,995.52
2018-12-22T03:27:43.662Z,995.72
2018-12-22T03:28:43.690Z,995.63
2018-12-22T03:29:43.642Z,995.66
2018-12-22T03:30:43.631Z,995.75
2018-12-22T03:31:43.629Z,995.88
2018-12-22T03:32:43.611Z,995.68
2018-12-22T03:33:43.597Z,995.76
2018-12-22T03:34:43.625Z,995.67
2018-12-22T03:35:43.574Z,995.70
2018-12-22T03:36:43.565Z,995.78
2018-12-22T03:37:43.556Z,995.76
2018-12-22T03:38:43.540Z,995.74
2018-12-22T03:39:43.532Z,995.85
2018-12-22T03:40:43.558Z,995.84
2018-12-22T03:41:43.510Z,995.84
2018-12-22T03:42:43.498Z,995.92
2018-12-22T03:43:43.487Z,996.01
2018-12-22T03:44:43.481Z,995.89
2018-12-22T03:45:43.465Z,995.93
2018-12-22T03:46:43.492Z,995.95
2018-12-22T03:47:43.448Z,995.97
2018-12-22T03:48:43.436Z,995.95
2018-12-22T03:49:43.425Z,996.06
2018-12-22T03:50:43.412Z,996.02
2018-12-22T03:51:43.399Z,996.08
2018-12-22T03:52:43.423Z,996.04
2018-12-22T03:53:43.376Z,996.10
2018-12-22T03:54:43.367Z,996.23
2018-12-22T03:55:43.357Z,996.07
2018-12-22T03:56:43.345Z,996.15
2018-12-22T03:57:43.336Z,996.15
2018-12-22T03:58:43.359Z,996.27
2018-12-22T03:59:43.312Z,996.18
2018-12-22T04:00:43.304Z,996.21
2018-12-22T04:01:43.297Z,996.22
2018-12-22T04:02:43.278Z,996.14
2018-12-22T04:03:43.270Z,996.15
2018-12-22T04:04:43.292Z,996.13
2018-12-22T04:05:43.247Z,996.18
2018-12-22T04:06:43.236Z,996.29
2018-12-22T04:07:43.232Z,996.39
2018-12-22T04:08:43.212Z,996.25
2018-12-22T04:09:43.204Z,996.20
2018-12-22T04:10:43.231Z,996.30
2018-12-22T04:11:43.180Z,996.19
2018-12-22T04:12:43.171Z,996.20
2018-12-22T04:13:43.157Z,996.15
2018-12-22T04:14:43.145Z,996.34
2018-12-22T04:15:43.134Z,996.36
2018-12-22T04:16:43.159Z,996.21
2018-12-22T04:17:43.114Z,996.19
2018-12-22T04:18:43.101Z,996.20
2018-12-22T04:19:43.097Z,996.24
2018-12-22T04:20:43.080Z,996.26
2018-12-22T04:21:43.070Z,996.31
2018-12-22T04:22:43.091Z,996.34
2018-12-22T04:23:43.046Z,996.31
2018-12-22T04:24:43.035Z,996.28
2018-12-22T04:25:43.024Z,996.27
2018-12-22T04:26:43.013Z,996.37
2018-12-22T04:27:43.008Z,996.38
2018-12-22T04:28:43.017Z,996.35
2018-12-22T04:29:42.981Z,996.49
2018-12-22T04:30:42.971Z,996.37
2018-12-22T04:31:42.961Z,996.42
2018-12-22T04:32:42.949Z,996.40
2018-12-22T04:33:42.962Z,996.44
2018-12-22T04:34:42.925Z,996.46
2018-12-22T04:35:42.915Z,996.45
2018-12-22T04:36:42.903Z,996.50
2018-12-22T04:37:42.890Z,996.51
2018-12-22T04:38:42.906Z,996.42
2018-12-22T04:39:42.873Z,996.57
2018-12-22T04:40:42.857Z,996.62
2018-12-22T04:41:42.848Z,996.52
2018-12-22T04:42:42.848Z,996.67
2018-12-22T04:43:42.852Z,996.64
2018-12-22T04:44:42.821Z,996.64
2018-12-22T04:45:42.804Z,996.67
2018-12-22T04:46:42.792Z,996.64
2018-12-22T04:47:42.793Z,996.66
2018-12-22T04:48:42.829Z,996.76
2018-12-22T04:49:42.761Z,996.64
2018-12-22T04:50:42.749Z,996.66
2018-12-22T04:51:42.737Z,996.61
2018-12-22T04:52:42.729Z,996.67
2018-12-22T04:53:42.751Z,996.63
2018-12-22T04:54:42.704Z,996.62
2018-12-22T04:55:42.695Z,996.65
2018-12-22T04:56:42.681Z,996.63
2018-12-22T04:57:42.673Z,996.64
2018-12-22T04:58:42.683Z,996.60
2018-12-22T04:59:43.175Z,996.59
2018-12-22T05:00:42.640Z,996.60
2018-12-22T05:01:42.634Z,996.60
2018-12-22T05:02:42.618Z,996.57
2018-12-22T05:03:42.631Z,996.58
2018-12-22T05:04:42.595Z,996.64
2018-12-22T05:05:42.584Z,996.55
2018-12-22T05:06:42.572Z,996.71
2018-12-22T05:07:42.565Z,996.70
2018-12-22T05:08:42.577Z,996.71
2018-12-22T05:09:42.542Z,996.76
2018-12-22T05:10:42.529Z,996.73
2018-12-22T05:11:42.549Z,996.73
2018-12-22T05:12:42.507Z,996.68
2018-12-22T05:13:42.522Z,996.78
2018-12-22T05:14:42.485Z,996.77
2018-12-22T05:15:42.475Z,996.80
2018-12-22T05:16:42.465Z,996.76
2018-12-22T05:17:42.455Z,996.86
2018-12-22T05:18:42.467Z,996.85
2018-12-22T05:19:42.437Z,996.87
2018-12-22T05:20:42.421Z,996.78
2018-12-22T05:21:42.410Z,996.78
2018-12-22T05:22:42.398Z,996.82
2018-12-22T05:23:42.414Z,996.82
2018-12-22T05:24:42.378Z,996.82
2018-12-22T05:25:42.367Z,996.81
2018-12-22T05:26:42.355Z,996.87
2018-12-22T05:27:42.344Z,996.78
2018-12-22T05:28:42.359Z,996.84
2018-12-22T05:29:42.323Z,996.76
2018-12-22T05:30:42.314Z,996.85
2018-12-22T05:31:42.302Z,996.86
2018-12-22T05:32:42.317Z,996.89
2018-12-22T05:33:42.282Z,996.92
2018-12-22T05:34:42.270Z,996.90
2018-12-22T05:35:42.259Z,996.91
2018-12-22T05:36:42.248Z,996.94
2018-12-22T05:37:42.264Z,996.92
2018-12-22T05:38:42.233Z,996.95
2018-12-22T05:39:42.218Z,996.82
2018-12-22T05:40:42.206Z,996.94
2018-12-22T05:41:42.197Z,996.94
2018-12-22T05:42:42.209Z,996.88
2018-12-22T05:43:42.175Z,996.89
2018-12-22T05:44:42.164Z,996.84
2018-12-22T05:45:42.168Z,996.85
2018-12-22T05:46:42.142Z,996.91
2018-12-22T05:47:42.157Z,996.93
2018-12-22T05:48:42.123Z,997.02
2018-12-22T05:49:42.111Z,996.91
2018-12-22T05:50:42.116Z,996.89
2018-12-22T05:51:42.089Z,996.94
2018-12-22T05:52:42.103Z,996.91
2018-12-22T05:53:42.078Z,996.90
2018-12-22T05:54:42.063Z,997.01
2018-12-22T05:55:42.045Z,996.96
2018-12-22T05:56:42.035Z,996.92
2018-12-22T05:57:42.050Z,996.89
2018-12-22T05:58:42.020Z,997.04
2018-12-22T05:59:42.006Z,997.05
2018-12-22T06:00:41.996Z,996.91
2018-12-22T06:01:41.985Z,996.93
2018-12-22T06:02:41.995Z,996.95
2018-12-22T06:03:41.963Z,996.94
2018-12-22T06:04:41.950Z,996.91
2018-12-22T06:05:41.942Z,996.95
2018-12-22T06:06:41.928Z,996.95
2018-12-22T06:07:41.943Z,996.89
2018-12-22T06:08:41.908Z,996.99
2018-12-22T06:09:41.898Z,996.97
2018-12-22T06:10:41.888Z,996.91
2018-12-22T06:11:41.882Z,996.98
2018-12-22T06:12:41.891Z,996.97
2018-12-22T06:13:41.853Z,996.99
2018-12-22T06:14:41.845Z,996.93
2018-12-22T06:15:41.833Z,997.00
2018-12-22T06:16:41.821Z,997.01
2018-12-22T06:17:41.917Z,997.02
2018-12-22T06:18:41.799Z,997.01
2018-12-22T06:19:41.789Z,997.11
2018-12-22T06:20:41.777Z,997.07
2018-12-22T06:21:41.769Z,997.05
2018-12-22T06:22:41.781Z,997.10
2018-12-22T06:23:41.884Z,997.22
2018-12-22T06:24:41.735Z,997.06
2018-12-22T06:25:41.726Z,997.18
2018-12-22T06:26:41.722Z,997.05
2018-12-22T06:27:41.732Z,997.01
2018-12-22T06:28:41.698Z,997.00
2018-12-22T06:29:41.685Z,997.12
2018-12-22T06:30:41.686Z,997.13
2018-12-22T06:31:41.663Z,997.06
2018-12-22T06:32:41.679Z,997.05
2018-12-22T06:33:41.649Z,997.13
2018-12-22T06:34:41.631Z,997.10
2018-12-22T06:35:41.619Z,997.15
2018-12-22T06:36:41.610Z,997.21
2018-12-22T06:37:41.630Z,997.14
2018-12-22T06:38:41.604Z,997.16
2018-12-22T06:39:41.584Z,997.17
2018-12-22T06:40:41.566Z,997.19
2018-12-22T06:41:41.558Z,997.20
2018-12-22T06:42:41.583Z,997.24
2018-12-22T06:43:41.575Z,997.24
2018-12-22T06:44:41.534Z,997.26
2018-12-22T06:45:41.519Z,997.25
2018-12-22T06:46:41.509Z,997.30
2018-12-22T06:47:41.499Z,997.22
2018-12-22T06:48:41.481Z,997.26
2018-12-22T06:49:41.506Z,997.22
2018-12-22T06:50:41.463Z,997.37
2018-12-22T06:51:41.449Z,997.32
2018-12-22T06:52:41.448Z,997.33
2018-12-22T06:53:42.105Z,997.41
2018-12-22T06:54:41.418Z,997.38
2018-12-22T06:55:41.432Z,997.39
2018-12-22T06:56:41.400Z,997.39
2018-12-22T06:57:41.387Z,997.47
2018-12-22T06:58:41.376Z,997.40
2018-12-22T06:59:41.366Z,997.46
2018-12-22T07:00:41.379Z,997.47
2018-12-22T07:01:41.344Z,997.46
2018-12-22T07:02:41.334Z,997.52
2018-12-22T07:03:41.323Z,997.54
2018-12-22T07:04:41.313Z,997.44
2018-12-22T07:05:41.338Z,997.47
2018-12-22T07:06:41.292Z,997.55
2018-12-22T07:07:41.280Z,997.53
2018-12-22T07:08:41.269Z,997.49
2018-12-22T07:09:41.261Z,997.54
2018-12-22T07:10:41.251Z,997.71
2018-12-22T07:11:41.276Z,997.66
2018-12-22T07:12:41.228Z,997.67
2018-12-22T07:13:41.217Z,997.63
2018-12-22T07:14:41.210Z,997.63
2018-12-22T07:15:41.196Z,997.66
2018-12-22T07:16:41.188Z,997.60
2018-12-22T07:17:41.210Z,997.62
2018-12-22T07:18:41.165Z,997.68
2018-12-22T07:19:41.165Z,997.75
2018-12-22T07:20:41.145Z,997.67
2018-12-22T07:21:41.134Z,997.65
2018-12-22T07:22:41.123Z,997.76
2018-12-22T07:23:41.151Z,997.70
2018-12-22T07:24:41.100Z,997.71
2018-12-22T07:25:41.090Z,997.77
2018-12-22T07:26:41.082Z,997.76
2018-12-22T07:27:41.071Z,997.88
2018-12-22T07:28:41.058Z,997.86
2018-12-22T07:29:41.085Z,997.77
2018-12-22T07:30:41.037Z,997.85
2018-12-22T07:31:41.028Z,997.82
2018-12-22T07:32:41.016Z,997.84
2018-12-22T07:33:41.009Z,997.81
2018-12-22T07:34:40.995Z,997.84
2018-12-22T07:35:41.011Z,997.86
2018-12-22T07:36:40.978Z,997.89
2018-12-22T07:37:40.967Z,997.91
2018-12-22T07:38:40.952Z,997.95
2018-12-22T07:39:40.944Z,997.96
2018-12-22T07:40:40.958Z,997.96
2018-12-22T07:41:40.922Z,997.92
2018-12-22T07:42:40.910Z,997.95
2018-12-22T07:43:40.907Z,997.94
2018-12-22T07:44:40.890Z,997.92
2018-12-22T07:45:40.916Z,997.91
2018-12-22T07:46:40.869Z,997.91
2018-12-22T07:47:40.857Z,997.95
2018-12-22T07:48:40.847Z,997.96
2018-12-22T07:49:40.836Z,997.95
2018-12-22T07:50:40.824Z,998.02
2018-12-22T07:51:40.851Z,998.03
2018-12-22T07:52:40.802Z,997.97
2018-12-22T07:53:40.792Z,998.01
2018-12-22T07:54:40.784Z,997.93
2018-12-22T07:55:40.775Z,998.00
2018-12-22T07:56:40.776Z,998.02
2018-12-22T07:57:40.789Z,998.07
2018-12-22T07:58:40.743Z,998.04
2018-12-22T07:59:40.734Z,997.93
2018-12-22T08:00:40.731Z,998.02
2018-12-22T08:01:40.719Z,998.07
2018-12-22T08:02:40.701Z,998.02
2018-12-22T08:03:40.729Z,997.97
2018-12-22T08:04:40.678Z,997.99
2018-12-22T08:05:40.673Z,997.99
2018-12-22T08:06:40.654Z,998.02
2018-12-22T08:07:40.644Z,997.98
2018-12-22T08:08:40.634Z,997.98
2018-12-22T08:09:40.659Z,997.98
2018-12-22T08:10:40.611Z,998.04
2018-12-22T08:11:40.601Z,998.05
2018-12-22T08:12:40.591Z,998.13
2018-12-22T08:13:40.583Z,998.16
2018-12-22T08:14:40.570Z,998.13
2018-12-22T08:15:40.586Z,998.15
2018-12-22T08:16:40.549Z,998.12
2018-12-22T08:17:40.546Z,998.14
2018-12-22T08:18:40.529Z,998.16
2018-12-22T08:19:40.524Z,998.19
2018-12-22T08:20:40.544Z,998.20
2018-12-22T08:21:40.497Z,998.21
2018-12-22T08:22:40.486Z,998.26
2018-12-22T08:23:40.475Z,998.22
2018-12-22T08:24:40.464Z,998.22
2018-12-22T08:25:40.515Z,998.23
2018-12-22T08:26:40.771Z,998.30
2018-12-22T08:27:43.379Z,998.26
2018-12-22T08:28:41.340Z,998.27
2018-12-22T08:29:40.487Z,998.30
2018-12-22T08:30:43.987Z,998.30
2018-12-22T08:31:43.260Z,998.33
2018-12-22T08:32:40.501Z,998.37
2018-12-22T08:33:40.373Z,998.35
2018-12-22T08:34:40.359Z,998.37
2018-12-22T08:35:40.352Z,998.42
2018-12-22T08:36:40.337Z,998.46
2018-12-22T08:37:40.366Z,998.45
2018-12-22T08:38:40.317Z,998.60
2018-12-22T08:39:40.316Z,998.56
2018-12-22T08:40:40.327Z,998.51
2018-12-22T08:41:40.286Z,998.53
2018-12-22T08:42:40.287Z,998.59
2018-12-22T08:43:40.304Z,998.55
2018-12-22T08:44:40.255Z,998.61
2018-12-22T08:45:40.242Z,998.62
2018-12-22T08:46:40.242Z,998.66
2018-12-22T08:47:40.227Z,998.69
2018-12-22T08:48:40.214Z,998.73
2018-12-22T08:49:40.239Z,998.76
2018-12-22T08:50:40.190Z,998.79
2018-12-22T08:51:40.190Z,998.79
2018-12-22T08:52:40.172Z,998.82
2018-12-22T08:53:40.161Z,998.84
2018-12-22T08:54:40.150Z,998.88
2018-12-22T08:55:40.164Z,998.83
2018-12-22T08:56:40.133Z,998.93
2018-12-22T08:57:40.116Z,998.88
2018-12-22T08:58:40.112Z,998.88
2018-12-22T08:59:40.098Z,998.85
2018-12-22T09:00:40.112Z,998.95
2018-12-22T09:01:40.078Z,998.90
2018-12-22T09:02:40.064Z,998.98
2018-12-22T09:03:40.052Z,999.00
2018-12-22T09:04:40.043Z,998.98
2018-12-22T09:05:40.072Z,999.04
2018-12-22T09:06:40.021Z,999.04
2018-12-22T09:07:40.011Z,999.06
2018-12-22T09:08:39.998Z,999.05
2018-12-22T09:09:39.989Z,999.08
2018-12-22T09:10:39.984Z,999.14
2018-12-22T09:11:40.071Z,999.11
2018-12-22T09:12:39.958Z,999.17
2018-12-22T09:13:39.946Z,999.13
2018-12-22T09:14:39.937Z,999.13
2018-12-22T09:15:39.925Z,999.11
2018-12-22T09:16:39.915Z,999.09
2018-12-22T09:17:39.940Z,999.12
2018-12-22T09:18:39.894Z,999.03
2018-12-22T09:19:39.884Z,999.13
2018-12-22T09:20:39.874Z,999.13
2018-12-22T09:21:39.864Z,999.11
2018-12-22T09:22:39.854Z,999.08
2018-12-22T09:23:39.878Z,999.16
2018-12-22T09:24:39.832Z,999.13
2018-12-22T09:25:39.822Z,999.18
2018-12-22T09:26:39.816Z,999.20
2018-12-22T09:27:39.800Z,999.25
2018-12-22T09:28:39.795Z,999.20
2018-12-22T09:29:39.817Z,999.27
2018-12-22T09:30:39.771Z,999.17
2018-12-22T09:31:39.758Z,999.15
2018-12-22T09:32:39.746Z,999.12
2018-12-22T09:33:39.737Z,999.18
2018-12-22T09:34:39.724Z,999.16
2018-12-22T09:35:39.742Z,999.15
2018-12-22T09:36:39.705Z,999.13
2018-12-22T09:37:39.697Z,999.23
2018-12-22T09:38:39.684Z,999.28
2018-12-22T09:39:39.673Z,999.31
2018-12-22T09:40:39.712Z,999.23
2018-12-22T09:41:39.653Z,999.22
2018-12-22T09:42:39.643Z,999.23
2018-12-22T09:43:39.642Z,999.27
2018-12-22T09:44:39.634Z,999.21
2018-12-22T09:45:39.647Z,999.27
2018-12-22T09:46:39.603Z,999.31
2018-12-22T09:47:39.593Z,999.25
2018-12-22T09:48:39.579Z,999.32
2018-12-22T09:49:39.573Z,999.29
2018-12-22T09:50:39.633Z,999.30
2018-12-22T09:51:39.588Z,999.35
2018-12-22T09:52:39.536Z,999.30
2018-12-22T09:53:39.527Z,999.27
2018-12-22T09:54:39.519Z,999.29
2018-12-22T09:55:39.511Z,999.34
2018-12-22T09:56:39.496Z,999.34
2018-12-22T09:57:39.521Z,999.31
2018-12-22T09:58:39.476Z,999.33
2018-12-22T09:59:39.462Z,999.38
2018-12-22T10:00:39.452Z,999.45
2018-12-22T10:01:39.442Z,999.39
2018-12-22T10:02:39.431Z,999.41
2018-12-22T10:03:39.456Z,999.41
2018-12-22T10:04:39.408Z,999.46
2018-12-22T10:05:39.399Z,999.43
2018-12-22T10:06:39.390Z,999.51
2018-12-22T10:07:39.378Z,999.53
2018-12-22T10:08:39.368Z,999.52
2018-12-22T10:09:39.393Z,999.48
2018-12-22T10:10:39.398Z,999.55
2018-12-22T10:11:39.337Z,999.53
2018-12-22T10:12:39.323Z,999.58
2018-12-22T10:13:39.314Z,999.55
2018-12-22T10:14:39.305Z,999.60
2018-12-22T10:15:39.318Z,999.57
2018-12-22T10:16:39.285Z,999.60
2018-12-22T10:17:39.271Z,999.70
2018-12-22T10:18:39.261Z,999.69
2018-12-22T10:19:39.250Z,999.68
2018-12-22T10:20:39.267Z,999.71
2018-12-22T10:21:39.230Z,999.67
2018-12-22T10:22:39.219Z,999.76
2018-12-22T10:23:39.210Z,999.78
2018-12-22T10:24:39.201Z,999.81
2018-12-22T10:25:39.286Z,999.84
2018-12-22T10:26:39.179Z,999.87
2018-12-22T10:27:39.167Z,999.89
2018-12-22T10:28:39.158Z,999.95
2018-12-22T10:29:39.148Z,999.92
2018-12-22T10:30:39.136Z,999.94
2018-12-22T10:31:39.166Z,999.93
2018-12-22T10:32:39.127Z,1000.00
2018-12-22T10:33:39.104Z,999.99
2018-12-22T10:34:39.095Z,999.97
2018-12-22T10:35:39.087Z,1000.01
2018-12-22T10:36:39.071Z,1000.12
2018-12-22T10:37:39.102Z,1000.07
2018-12-22T10:38:39.050Z,1000.16
2018-12-22T10:39:39.041Z,1000.22
2018-12-22T10:40:39.032Z,1000.17
2018-12-22T10:41:39.020Z,1000.21
2018-12-22T10:42:39.009Z,1000.23
2018-12-22T10:43:39.035Z,1000.29
2018-12-22T10:44:38.986Z,1000.27
2018-12-22T10:45:38.976Z,1000.32
2018-12-22T10:46:38.967Z,1000.34
2018-12-22T10:47:38.960Z,1000.34
2018-12-22T10:48:38.946Z,1000.37
2018-12-22T10:49:38.973Z,1000.37
2018-12-22T10:50:38.923Z,1000.41
2018-12-22T10:51:38.912Z,1000.35
2018-12-22T10:52:38.904Z,1000.35
2018-12-22T10:53:38.893Z,1000.42
2018-12-22T10:54:38.883Z,1000.42
2018-12-22T10:55:38.895Z,1000.40
2018-12-22T10:56:38.861Z,1000.46
2018-12-22T10:57:38.851Z,1000.51
2018-12-22T10:58:38.843Z,1000.50
2018-12-22T10:59:38.830Z,1000.56
2018-12-22T11:00:38.847Z,1000.53
2018-12-22T11:01:38.811Z,1000.59
2018-12-22T11:02:38.902Z,1000.62
2018-12-22T11:03:38.786Z,1000.60
2018-12-22T11:04:38.777Z,1000.66
2018-12-22T11:05:38.790Z,1000.75
2018-12-22T11:06:38.756Z,1000.74
2018-12-22T11:07:38.746Z,1000.78
2018-12-22T11:08:38.732Z,1000.84
2018-12-22T11:09:38.724Z,1000.77
2018-12-22T11:10:38.749Z,1000.83
2018-12-22T11:11:38.705Z,1000.91
2018-12-22T11:12:38.691Z,1000.93
2018-12-22T11:13:38.682Z,1000.98
2018-12-22T11:14:38.670Z,1000.96
2018-12-22T11:15:38.659Z,1001.02
2018-12-22T11:16:38.674Z,1001.03
2018-12-22T11:17:38.637Z,1001.03
2018-12-22T11:18:38.630Z,1001.00
2018-12-22T11:19:38.619Z,1001.00
2018-12-22T11:20:38.606Z,1000.96
2018-12-22T11:21:38.709Z,1001.01
2018-12-22T11:22:38.585Z,1001.03
2018-12-22T11:23:38.573Z,1001.06
2018-12-22T11:24:38.565Z,1001.05
2018-12-22T11:25:38.554Z,1001.10
2018-12-22T11:26:38.543Z,1001.11
2018-12-22T11:27:38.569Z,1001.13
2018-12-22T11:28:38.522Z,1001.10
2018-12-22T11:29:38.513Z,1001.10
2018-12-22T11:30:38.500Z,1001.13
2018-12-22T11:31:38.491Z,1001.14
2018-12-22T11:32:38.481Z,1001.17
2018-12-22T11:33:38.504Z,1001.20
2018-12-22T11:34:38.460Z,1001.18
2018-12-22T11:35:38.451Z,1001.15
2018-12-22T11:36:38.438Z,1001.19
2018-12-22T11:37:38.428Z,1001.17
2018-12-22T11:38:38.417Z,1001.26
2018-12-22T11:39:38.441Z,1001.22
2018-12-22T11:40:38.396Z,1001.29
2018-12-22T11:41:38.389Z,1001.33
2018-12-22T11:42:38.377Z,1001.44
2018-12-22T11:43:38.363Z,1001.40
2018-12-22T11:44:38.362Z,1001.42
2018-12-22T11:45:38.367Z,1001.43
2018-12-22T11:46:38.335Z,1001.44
2018-12-22T11:47:38.324Z,1001.42
2018-12-22T11:48:38.312Z,1001.46
2018-12-22T11:49:38.300Z,1001.41
2018-12-22T11:50:38.314Z,1001.44
2018-12-22T11:51:38.278Z,1001.48
2018-12-22T11:52:39.529Z,1001.48
2018-12-22T11:53:38.260Z,1001.49
2018-12-22T11:54:38.246Z,1001.48
2018-12-22T11:55:38.259Z,1001.49
2018-12-22T11:56:38.226Z,1001.51
2018-12-22T11:57:38.215Z,1001.57
2018-12-22T11:58:38.429Z,1001.54
2018-12-22T11:59:38.199Z,1001.59
2018-12-22T12:00:38.218Z,1001.63
2018-12-22T12:01:43.512Z,1001.71
2018-12-22T12:02:39.159Z,1001.73
2018-12-22T12:03:38.149Z,1001.72
2018-12-22T12:04:38.143Z,1001.79
2018-12-22T12:05:38.131Z,1001.78
2018-12-22T12:06:38.144Z,1001.81
2018-12-22T12:07:38.107Z,1001.85
2018-12-22T12:08:38.097Z,1001.92
2018-12-22T12:09:38.086Z,1001.89
2018-12-22T12:10:38.078Z,1001.92
2018-12-22T12:11:38.103Z,1001.95
2018-12-22T12:12:38.055Z,1001.95
2018-12-22T12:13:38.045Z,1001.99
2018-12-22T12:14:38.035Z,1002.07
2018-12-22T12:15:38.024Z,1002.07
2018-12-22T12:16:38.012Z,1002.07
2018-12-22T12:17:38.040Z,1002.17
2018-12-22T12:18:37.991Z,1002.19
2018-12-22T12:19:38.010Z,1002.20
2018-12-22T12:20:37.969Z,1002.20
2018-12-22T12:21:37.957Z,1002.27
2018-12-22T12:22:37.946Z,1002.22
2018-12-22T12:23:37.973Z,1002.25
2018-12-22T12:24:37.926Z,1002.28
2018-12-22T12:25:37.914Z,1002.20